Time;durP1;ratioP1;P1;durP2;ratioP2;P2;SDS_P1;SDS_P2;PMS_P1;PMS_P2;Temp;Humidity;BMP_temperature;BMP_pressure;BME280_temperature;BME280_humidity;BME280_pressure;Samples;Min_cycle;Max_cycle;Signal;HPM_P1;HPM_P2
2022/06/01 00:02:27;;;;;;;8.38;6.32;;;;;;;16.72;71.34;100366.09;5007904;28;20058;-80
2022/06/01 00:04:55;;;;;;;13.20;6.47;;;;;;;16.68;71.45;100362.63;4999328;28;20490;-79
2022/06/01 00:07:25;;;;;;;12.90;6.75;;;;;;;16.69;71.12;100368.75;4999531;28;20058;-81
2022/06/01 00:09:54;;;;;;;8.27;6.47;;;;;;;16.70;71.21;100365.25;4997308;28;20508;-79
2022/06/01 00:12:23;;;;;;;9.20;6.40;;;;;;;16.52;70.44;100338.22;4979757;28;20117;-80
2022/06/01 00:14:52;;;;;;;12.45;6.72;;;;;;;16.67;70.36;100365.28;4980071;28;20536;-79
2022/06/01 00:17:20;;;;;;;10.15;6.68;;;;;;;16.69;71.07;100371.41;4980086;28;20054;-79
2022/06/01 00:19:48;;;;;;;10.90;7.35;;;;;;;16.64;71.15;100371.47;4979999;28;20091;-80
2022/06/01 00:22:17;;;;;;;10.88;6.90;;;;;;;16.63;71.07;100368.84;4979838;28;20105;-80
2022/06/01 00:24:47;;;;;;;9.88;7.47;;;;;;;16.57;71.17;100364.53;4979837;28;20061;-81
2022/06/01 00:27:17;;;;;;;10.90;7.60;;;;;;;16.54;71.21;100367.19;4979817;28;20059;-79
2022/06/01 00:29:45;;;;;;;9.87;8.07;;;;;;;16.41;70.95;100339.25;4962707;28;20054;-80
2022/06/01 00:32:14;;;;;;;10.55;8.00;;;;;;;16.32;70.85;100329.69;4979688;28;20109;-79
2022/06/01 00:34:44;;;;;;;12.50;8.52;;;;;;;16.44;70.99;100357.69;4958667;28;20054;-81
2022/06/01 00:37:13;;;;;;;12.35;8.27;;;;;;;16.47;71.25;100379.59;4959488;28;20060;-79
2022/06/01 00:39:40;;;;;;;11.98;8.43;;;;;;;16.46;71.19;100366.44;4976640;28;20133;-80
2022/06/01 00:42:22;;;;;;;12.15;8.40;;;;;;;16.39;71.11;100368.28;4976794;28;20147;-80
2022/06/01 00:44:52;;;;;;;11.63;8.50;;;;;;;16.40;71.38;100371.78;4976704;28;20054;-80
2022/06/01 00:47:21;;;;;;;14.30;8.60;;;;;;;16.35;71.42;100369.22;4976762;28;20582;-80
2022/06/01 00:50:04;;;;;;;12.33;8.30;;;;;;;16.23;71.70;100361.44;4976579;28;20513;-80
2022/06/01 00:52:38;;;;;;;15.07;9.45;;;;;;;16.29;71.75;100385.09;4976344;28;20699;-81
2022/06/01 00:55:16;;;;;;;15.40;8.88;;;;;;;16.23;72.11;100374.63;4977115;28;20062;-79
2022/06/01 00:57:48;;;;;;;13.80;9.23;;;;;;;16.11;72.76;100352.81;4959046;28;20503;-80
2022/06/01 01:00:22;;;;;;;14.85;9.27;;;;;;;16.13;72.67;100377.38;4976533;28;20420;-79
2022/06/01 01:02:56;;;;;;;17.30;9.77;;;;;;;16.27;72.75;100389.53;4976647;28;20074;-78
2022/06/01 01:05:27;;;;;;;15.68;10.48;;;;;;;16.20;72.98;100396.63;4976439;28;20050;-80
2022/06/01 01:07:58;;;;;;;17.88;10.18;;;;;;;16.05;73.23;100381.00;4976282;28;20058;-81
2022/06/01 01:10:25;;;;;;;18.50;9.30;;;;;;;16.07;73.43;100405.56;4976390;28;20082;-79
2022/06/01 01:13:01;;;;;;;14.98;9.45;;;;;;;16.03;73.43;100391.53;4976335;28;20055;-79
2022/06/01 01:15:36;;;;;;;13.15;8.55;;;;;;;15.93;73.57;100390.75;4975507;28;20056;-80
2022/06/01 01:18:09;;;;;;;15.70;8.50;;;;;;;16.03;73.51;100398.56;4976762;28;20062;-81
2022/06/01 01:20:54;;;;;;;12.73;9.05;;;;;;;16.06;72.95;100396.75;4976214;28;20495;-80
2022/06/01 01:23:38;;;;;;;9.00;7.70;;;;;;;16.05;72.90;100397.66;4977532;28;20535;-79
2022/06/01 01:26:07;;;;;;;11.80;8.13;;;;;;;15.93;73.21;100389.88;4976189;28;20575;-80
2022/06/01 01:28:34;;;;;;;12.63;9.00;;;;;;;15.99;73.47;100403.00;4958949;28;20070;-79
2022/06/01 01:31:17;;;;;;;13.55;8.82;;;;;;;15.90;73.51;100398.69;4976552;28;20113;-79
2022/06/01 01:33:49;;;;;;;12.32;8.93;;;;;;;15.84;73.77;100397.88;4976298;28;20555;-79
2022/06/01 01:36:23;;;;;;;14.82;9.30;;;;;;;15.69;73.68;100365.50;4976161;28;20062;-80
2022/06/01 01:39:02;;;;;;;13.98;9.35;;;;;;;15.66;73.96;100393.59;4980644;28;20094;-80
2022/06/01 01:41:36;;;;;;;15.02;9.48;;;;;;;15.59;74.35;100377.00;4993689;28;20050;-81
2022/06/01 01:44:12;;;;;;;14.68;8.88;;;;;;;15.72;74.28;100391.84;4995415;28;20489;-80
2022/06/01 01:46:47;;;;;;;10.70;8.32;;;;;;;15.68;74.37;100405.91;4995508;28;20080;-79
2022/06/01 01:49:22;;;;;;;12.95;8.88;;;;;;;15.75;74.54;100404.97;4995648;28;20081;-78
2022/06/01 01:51:53;;;;;;;12.23;8.82;;;;;;;15.75;74.48;100412.88;4995611;28;20149;-79
2022/06/01 01:54:52;;;;;;;13.32;9.13;;;;;;;15.73;74.37;100408.53;4995328;28;20381;-79
2022/06/01 01:57:22;;;;;;;;;;;;;;;15.51;74.50;100405.19;4995960;28;20505;-77
2022/06/01 01:59:50;;;;;;;13.10;8.57;;;;;;;15.62;75.02;100410.34;4977890;28;19972;-77
2022/06/01 02:02:30;;;;;;;11.73;8.75;;;;;;;15.51;74.75;100390.25;4995444;28;20062;-77
2022/06/01 02:08:15;;;;;;;12.43;8.82;;;;;;;15.77;74.34;100408.47;4995101;28;20061;-80
2022/06/01 02:13:33;;;;;;;14.85;9.15;;;;;;;15.79;74.37;100405.84;4995598;28;20054;-79
2022/06/01 02:16:02;;;;;;;13.55;9.38;;;;;;;15.77;74.27;100407.59;4994734;28;20054;-80
2022/06/01 02:18:38;;;;;;;15.05;8.80;;;;;;;15.87;74.17;100405.75;4994962;28;20405;-80
2022/06/01 02:21:15;;;;;;;12.65;8.35;;;;;;;15.97;73.63;100404.78;4996275;28;20201;-80
2022/06/01 02:23:44;;;;;;;12.50;8.45;;;;;;;16.10;73.69;100403.75;4977319;28;20050;-80
2022/06/01 02:26:14;;;;;;;15.43;8.90;;;;;;;16.17;73.30;100416.00;4994889;28;20546;-81
2022/06/01 02:28:44;;;;;;;13.13;8.57;;;;;;;16.04;73.35;100409.09;4995083;28;20057;-81
2022/06/01 02:31:15;;;;;;;11.63;8.10;;;;;;;15.76;73.94;100376.88;4995760;28;20140;-78
2022/06/01 02:33:47;;;;;;;13.77;8.55;;;;;;;15.79;74.30;100405.84;4994568;28;20145;-80
2022/06/01 02:36:20;;;;;;;10.75;8.40;;;;;;;15.87;74.15;100403.09;4994715;28;20054;-79
2022/06/01 02:38:52;;;;;;;10.75;8.65;;;;;;;16.02;73.99;100402.09;4995474;28;20057;-80
2022/06/01 02:44:07;;;;;;;13.05;9.05;;;;;;;16.21;73.39;100419.44;5003562;28;20054;-79
2022/06/01 02:46:36;;;;;;;12.05;8.88;;;;;;;16.31;73.03;100400.00;5002703;28;20054;-79
2022/06/01 02:49:04;;;;;;;13.57;9.18;;;;;;;16.51;72.20;100399.75;4996640;28;20108;-80
2022/06/01 02:51:33;;;;;;;12.57;8.60;;;;;;;16.95;71.03;100406.25;4993979;28;20148;-80
2022/06/01 02:54:02;;;;;;;13.82;8.95;;;;;;;17.36;69.54;100410.03;4976376;28;20073;-79
2022/06/01 02:56:30;;;;;;;14.98;9.13;;;;;;;17.50;68.91;100404.53;4992990;28;20058;-79
2022/06/01 02:59:00;;;;;;;14.52;8.73;;;;;;;17.55;68.67;100415.00;4993417;28;20046;-81
2022/06/01 03:01:28;;;;;;;12.10;8.60;;;;;;;17.55;68.20;100372.75;4993528;28;20058;-80
2022/06/01 03:03:57;;;;;;;13.68;8.98;;;;;;;17.87;67.59;100395.13;4993291;28;20093;-79
2022/06/01 03:06:26;;;;;;;14.07;8.93;;;;;;;18.19;66.49;100399.81;4976979;28;20519;-79
2022/06/01 03:09:14;;;;;;;13.65;8.65;;;;;;;18.50;65.69;100405.38;4993846;28;20058;-80
2022/06/01 03:11:43;;;;;;;13.18;8.82;;;;;;;18.99;63.70;100414.03;4994271;28;20085;-78
2022/06/01 03:14:11;;;;;;;10.55;8.45;;;;;;;19.97;61.09;100402.84;4993382;28;20492;-79
2022/06/01 03:16:40;;;;;;;16.48;8.27;;;;;;;20.36;59.33;100381.44;4994048;28;20053;-80
2022/06/01 03:19:11;;;;;;;11.05;8.35;;;;;;;20.59;58.58;100386.97;4994211;28;20060;-81
2022/06/01 03:21:40;;;;;;;12.70;8.30;;;;;;;20.46;58.74;100382.91;4993029;28;20078;-80
2022/06/01 03:24:09;;;;;;;9.70;8.32;;;;;;;20.79;58.46;100391.69;4993511;28;20046;-79
2022/06/01 03:26:38;;;;;;;10.93;7.90;;;;;;;21.57;55.73;100379.50;4993701;28;20058;-79
2022/06/01 03:29:05;;;;;;;11.32;8.23;;;;;;;21.58;55.64;100390.09;4994036;28;20058;-81
2022/06/01 03:31:33;;;;;;;11.02;7.45;;;;;;;21.46;54.93;100332.88;4994852;28;20128;-81
2022/06/01 03:34:08;;;;;;;9.52;7.40;;;;;;;22.03;54.28;100402.72;4994266;28;20504;-82
2022/06/01 03:36:36;;;;;;;12.20;7.90;;;;;;;22.20;53.65;100395.91;4995589;28;20050;-81
2022/06/01 03:39:04;;;;;;;10.73;8.15;;;;;;;21.78;54.53;100391.19;5016479;28;20035;-78
2022/06/01 03:41:33;;;;;;;11.93;8.23;;;;;;;22.28;53.41;100394.75;5014700;28;20109;-80
2022/06/01 03:46:48;;;;;;;10.60;7.50;;;;;;;23.65;49.78;100396.53;4979872;28;20047;-81
2022/06/01 03:49:15;;;;;;;11.40;7.85;;;;;;;23.38;50.06;100379.88;4993086;28;20500;-81
2022/06/01 03:51:42;;;;;;;12.43;7.60;;;;;;;24.76;47.17;100396.97;4992649;28;20435;-82
2022/06/01 03:54:11;;;;;;;10.38;7.13;;;;;;;26.48;43.23;100396.34;4975727;28;20595;-80
2022/06/01 03:56:40;;;;;;;;;;;;;;;28.31;43.66;100391.22;4975861;28;20428;-81
2022/06/01 03:59:07;;;;;;;12.73;7.00;;;;;;;28.73;38.83;100376.03;4993209;28;19996;-83
2022/06/01 04:01:37;;;;;;;10.93;6.57;;;;;;;27.58;40.16;100395.53;4992845;28;20050;-81
2022/06/01 04:04:05;;;;;;;9.15;6.40;;;;;;;26.42;42.49;100400.25;4992576;28;20081;-80
2022/06/01 04:06:33;;;;;;;8.15;6.38;;;;;;;26.17;42.97;100395.34;4993004;28;20054;-80
2022/06/01 04:09:00;;;;;;;9.65;6.35;;;;;;;26.15;41.52;100367.78;4995341;28;20495;-80
2022/06/01 04:11:27;;;;;;;10.15;6.10;;;;;;;25.41;42.73;100390.28;4979482;28;20054;-81
2022/06/01 04:13:55;;;;;;;8.38;5.32;;;;;;;24.41;43.73;100383.44;4996544;28;20046;-83
2022/06/01 04:16:25;;;;;;;9.18;4.93;;;;;;;24.00;44.84;100383.50;4996596;28;20086;-80
2022/06/01 04:18:52;;;;;;;9.95;5.82;;;;;;;23.90;45.29;100370.56;4978584;28;20402;-79
2022/06/01 04:21:25;;;;;;;8.52;5.45;;;;;;;23.88;44.79;100376.91;4997113;28;20058;-80
2022/06/01 04:23:59;;;;;;;8.55;5.00;;;;;;;23.49;44.88;100391.84;4996449;28;20062;-77
2022/06/01 04:26:28;;;;;;;6.20;4.72;;;;;;;23.30;44.68;100401.53;4996011;28;20579;-81
2022/06/01 04:28:58;;;;;;;7.18;4.70;;;;;;;23.05;45.16;100399.81;4996544;28;20508;-79
2022/06/01 04:31:26;;;;;;;9.52;5.30;;;;;;;22.97;45.20;100391.25;4996684;28;20145;-78
2022/06/01 04:33:54;;;;;;;6.70;5.00;;;;;;;23.03;44.46;100375.03;4996165;28;20124;-78
2022/06/01 04:36:23;;;;;;;5.68;4.43;;;;;;;23.57;43.82;100398.63;4995780;28;20220;-78
2022/06/01 04:38:51;;;;;;;5.40;4.20;;;;;;;23.84;42.88;100402.84;4995987;28;20050;-79
2022/06/01 04:41:18;;;;;;;9.48;4.70;;;;;;;24.21;42.29;100392.34;4989754;28;20062;-78
2022/06/01 04:43:45;;;;;;;7.22;4.97;;;;;;;24.71;41.16;100402.53;4989771;28;20050;-79
2022/06/01 04:46:12;;;;;;;9.27;5.32;;;;;;;24.94;40.54;100399.66;4995369;28;20456;-79
2022/06/01 04:48:39;;;;;;;9.05;4.85;;;;;;;25.33;40.04;100403.16;4996047;28;20054;-81
2022/06/01 04:51:08;;;;;;;8.85;4.80;;;;;;;25.82;39.62;100379.28;4995869;28;20149;-79
2022/06/01 04:53:36;;;;;;;8.95;4.75;;;;;;;26.12;38.21;100378.66;4995975;28;20051;-78
2022/06/01 04:56:05;;;;;;;9.85;5.20;;;;;;;25.97;39.24;100398.22;4995464;28;20061;-79
2022/06/01 04:58:34;;;;;;;7.78;4.35;;;;;;;25.52;39.80;100385.25;4995815;28;20085;-78
2022/06/01 05:01:06;;;;;;;9.20;4.75;;;;;;;24.99;40.73;100372.69;4979033;28;20101;-80
2022/06/01 05:03:34;;;;;;;7.63;4.25;;;;;;;24.35;42.18;100391.72;4978762;28;20085;-78
2022/06/01 05:06:03;;;;;;;;;;;;;;;24.06;43.78;100400.09;4995459;28;20483;-78
2022/06/01 05:08:30;;;;;;;7.80;4.90;;;;;;;24.40;41.95;100403.94;4996257;28;19960;-78
2022/06/01 05:10:58;;;;;;;9.25;4.35;;;;;;;24.12;41.66;100409.63;4995605;28;20054;-80
2022/06/01 05:13:25;;;;;;;7.03;4.43;;;;;;;23.84;42.23;100393.97;4995379;28;20583;-79
2022/06/01 05:15:55;;;;;;;9.75;4.20;;;;;;;24.01;41.72;100403.91;4978069;28;20107;-80
2022/06/01 05:18:22;;;;;;;7.57;4.30;;;;;;;24.41;40.88;100407.47;4995779;28;20054;-79
2022/06/01 05:20:50;;;;;;;7.25;4.32;;;;;;;24.70;40.76;100404.34;4995169;28;20054;-79
2022/06/01 05:23:20;;;;;;;8.68;4.80;;;;;;;24.98;40.52;100395.03;4995570;28;20104;-79
2022/06/01 05:25:47;;;;;;;;;;;;;;;25.30;41.06;100397.97;4995353;28;20069;-77
2022/06/01 05:28:24;;;;;;;5.93;4.05;;;;;;;25.48;38.88;100394.38;4995239;28;19925;-80
2022/06/01 05:31:05;;;;;;;6.63;4.22;;;;;;;25.86;37.92;100396.91;4995284;28;20118;-80
2022/06/01 05:33:33;;;;;;;5.55;3.83;;;;;;;26.38;36.34;100366.56;4995160;28;20105;-79
2022/06/01 05:36:00;;;;;;;7.13;3.85;;;;;;;26.67;35.48;100369.47;4995179;28;20104;-79
2022/06/01 05:38:26;;;;;;;8.10;3.80;;;;;;;26.42;35.55;100396.72;4994881;28;20050;-84
2022/06/01 05:40:55;;;;;;;4.57;3.40;;;;;;;26.23;35.61;100386.97;4994103;28;20439;-80
2022/06/01 05:43:24;;;;;;;5.38;3.08;;;;;;;25.97;34.07;100388.38;4995688;28;20455;-81
2022/06/01 05:45:52;;;;;;;3.22;2.92;;;;;;;25.79;34.63;100382.13;4995325;28;20535;-80
2022/06/01 05:48:22;;;;;;;4.18;2.80;;;;;;;25.85;35.07;100372.91;4978254;28;20057;-80
2022/06/01 05:50:56;;;;;;;4.95;3.20;;;;;;;26.02;34.93;100359.53;4976988;28;20053;-81
2022/06/01 05:53:25;;;;;;;6.57;3.40;;;;;;;26.21;35.22;100366.59;4977305;28;20069;-80
2022/06/01 05:55:53;;;;;;;;;;;;;;;26.39;36.49;100370.09;4978411;28;20092;-80
2022/06/01 05:58:23;;;;;;;6.55;3.83;;;;;;;26.29;35.22;100343.81;4994570;28;20370;-80
2022/06/01 06:00:54;;;;;;;5.70;3.30;;;;;;;26.13;35.51;100369.69;4977899;28;20070;-78
2022/06/01 06:03:23;;;;;;;6.22;3.50;;;;;;;25.78;36.14;100356.31;4994658;28;20058;-77
2022/06/01 06:06:13;;;;;;;5.82;3.65;;;;;;;25.67;36.21;100334.63;4994434;28;20105;-78
2022/06/01 06:08:59;;;;;;;6.40;3.90;;;;;;;26.00;36.67;100357.91;4994283;28;20042;-78
2022/06/01 06:11:36;;;;;;;6.38;3.80;;;;;;;26.16;36.11;100364.19;4995177;28;20081;-79
2022/06/01 06:14:07;;;;;;;7.82;3.78;;;;;;;25.67;36.80;100362.22;4994121;28;20046;-78
2022/06/01 06:16:42;;;;;;;5.57;3.88;;;;;;;25.50;37.32;100357.72;4960971;28;20508;-79
2022/06/01 06:19:13;;;;;;;5.82;3.72;;;;;;;25.80;37.85;100350.91;4994284;28;20058;-78
2022/06/01 06:21:42;;;;;;;6.07;3.95;;;;;;;26.13;36.67;100362.50;4976773;28;20050;-78
2022/06/01 06:24:12;;;;;;;8.10;3.78;;;;;;;26.02;36.87;100372.06;4993810;28;20128;-78
2022/06/01 06:26:46;;;;;;;5.00;3.30;;;;;;;25.49;37.41;100355.13;4994216;28;20090;-78
2022/06/01 06:29:18;;;;;;;4.20;3.42;;;;;;;25.63;37.75;100354.44;4993947;28;20058;-79
2022/06/01 06:31:46;;;;;;;4.85;3.53;;;;;;;25.75;37.16;100357.34;4993386;28;20054;-78
2022/06/01 06:34:16;;;;;;;5.30;3.42;;;;;;;25.70;37.22;100359.38;4976380;28;20551;-77
2022/06/01 06:36:45;;;;;;;4.50;3.33;;;;;;;25.49;37.44;100321.25;4994278;28;20058;-80
2022/06/01 06:39:14;;;;;;;5.50;3.33;;;;;;;25.71;37.72;100358.44;4993588;28;20054;-80
2022/06/01 06:41:41;;;;;;;5.82;3.75;;;;;;;25.49;37.98;100349.78;4976831;28;20062;-79
2022/06/01 06:44:10;;;;;;;10.68;3.60;;;;;;;25.64;37.77;100346.34;4994296;28;20451;-78
2022/06/01 06:46:39;;;;;;;4.90;3.93;;;;;;;25.56;37.83;100323.63;4994112;28;20089;-79
2022/06/01 06:49:07;;;;;;;;;;;;;;;25.30;38.66;100345.38;4994054;28;20085;-78
2022/06/01 06:51:37;;;;;;;6.43;3.25;;;;;;;25.11;38.15;100324.00;4993786;28;19931;-78
2022/06/01 06:54:05;;;;;;;5.85;3.58;;;;;;;24.92;38.08;100324.03;4993163;28;20080;-78
2022/06/01 06:56:33;;;;;;;3.88;3.25;;;;;;;25.04;38.35;100345.78;4993801;28;20078;-77
2022/06/01 06:59:05;;;;;;;6.22;3.25;;;;;;;24.90;38.11;100351.78;4994149;28;20054;-78
2022/06/01 07:01:33;;;;;;;4.75;3.25;;;;;;;24.83;38.30;100348.53;4977280;28;20050;-79
2022/06/01 07:04:01;;;;;;;3.67;3.38;;;;;;;24.79;38.85;100356.78;4993913;28;20132;-78
2022/06/01 07:06:30;;;;;;;3.97;3.25;;;;;;;24.92;39.18;100352.56;4976795;28;20080;-78
2022/06/01 07:09:00;;;;;;;6.60;3.90;;;;;;;24.95;38.60;100317.66;4993523;28;20050;-77
2022/06/01 07:11:29;;;;;;;4.82;3.22;;;;;;;24.84;38.00;100349.41;4994288;28;20060;-79
2022/06/01 07:13:59;;;;;;;10.20;3.40;;;;;;;24.66;38.15;100357.34;4994024;28;20097;-78
2022/06/01 07:16:30;;;;;;;3.80;3.50;;;;;;;24.57;38.96;100336.44;4995250;28;20077;-79
2022/06/01 07:19:01;;;;;;;5.72;3.80;;;;;;;24.77;39.02;100348.81;4995227;28;20058;-79
2022/06/01 07:21:29;;;;;;;;;;;;;;;24.46;39.53;100339.56;5012541;28;20060;-78
2022/06/01 07:23:59;;;;;;;3.53;3.20;;;;;;;24.65;39.45;100344.94;5010174;28;19932;-80
2022/06/01 07:26:38;;;;;;;8.27;3.70;;;;;;;24.77;39.44;100348.81;5012190;28;20081;-79
2022/06/01 07:29:06;;;;;;;3.25;3.05;;;;;;;24.93;38.44;100348.97;4993976;28;20132;-78
2022/06/01 07:31:35;;;;;;;4.97;3.25;;;;;;;24.93;38.71;100367.69;4976986;28;20532;-78
2022/06/01 07:34:03;;;;;;;5.03;3.33;;;;;;;24.66;38.90;100353.81;4993733;28;20053;-78
2022/06/01 07:36:32;;;;;;;5.43;3.20;;;;;;;24.79;38.93;100364.78;4993916;28;20492;-79
2022/06/01 07:44:51;;;;;;;2.78;2.58;;;;;;;25.52;36.71;100347.81;5010258;28;20061;-78
2022/06/01 07:47:21;;;;;;;6.28;3.10;;;;;;;25.78;37.08;100328.69;5009207;28;20054;-78
2022/06/01 07:50:10;;;;;;;5.38;3.25;;;;;;;26.32;36.14;100354.34;5008078;28;20051;-79
2022/06/01 07:52:59;;;;;;;5.03;3.13;;;;;;;26.33;35.75;100342.72;4997196;28;20050;-79
2022/06/01 07:55:28;;;;;;;5.50;3.40;;;;;;;26.22;35.75;100355.81;4996756;28;20305;-78
2022/06/01 07:58:00;;;;;;;4.60;3.60;;;;;;;26.27;36.20;100367.13;4996880;28;20139;-79
2022/06/01 08:00:31;;;;;;;4.65;2.97;;;;;;;26.29;36.14;100359.88;4997062;28;20137;-78
2022/06/01 08:02:59;;;;;;;4.40;3.22;;;;;;;26.31;36.03;100373.19;4996920;28;20050;-79
2022/06/01 08:05:27;;;;;;;6.85;3.22;;;;;;;26.35;36.31;100364.91;4996569;28;20074;-78
2022/06/01 08:07:57;;;;;;;5.05;3.15;;;;;;;26.08;36.54;100310.19;4996706;28;20069;-79
2022/06/01 08:10:24;;;;;;;7.47;3.28;;;;;;;26.57;35.99;100365.59;4996639;28;20531;-79
2022/06/01 08:13:06;;;;;;;7.22;3.15;;;;;;;26.41;36.17;100374.41;4990151;28;20042;-78
2022/06/01 08:15:45;;;;;;;7.50;3.22;;;;;;;26.25;36.35;100357.47;4994717;28;20068;-76
2022/06/01 08:18:17;;;;;;;8.05;3.10;;;;;;;26.41;36.55;100368.19;4996755;28;20058;-78
2022/06/01 08:20:47;;;;;;;6.75;3.40;;;;;;;27.01;35.73;100379.16;4996536;28;20065;-80
2022/06/01 08:23:25;;;;;;;6.47;3.50;;;;;;;27.48;35.30;100383.63;4996196;28;20112;-79
2022/06/01 08:25:55;;;;;;;5.28;3.17;;;;;;;27.66;35.19;100373.63;4996027;28;20096;-79
2022/06/01 08:28:25;;;;;;;6.75;3.70;;;;;;;28.01;34.67;100380.50;4978415;28;20471;-79
2022/06/01 08:30:52;;;;;;;8.68;3.83;;;;;;;28.30;34.13;100387.63;4987125;28;20133;-78
2022/06/01 08:33:23;;;;;;;6.25;3.72;;;;;;;28.43;34.18;100386.88;4976598;28;20061;-81
2022/06/01 08:35:52;;;;;;;9.85;3.45;;;;;;;28.43;34.18;100382.38;4976531;28;20055;-80
2022/06/01 08:38:20;;;;;;;4.82;3.40;;;;;;;28.33;34.20;100365.09;4977508;28;20054;-80
2022/06/01 08:41:02;;;;;;;3.58;3.28;;;;;;;28.23;34.42;100356.75;4988566;28;20054;-78
2022/06/01 08:43:45;;;;;;;3.78;3.22;;;;;;;28.33;34.45;100373.16;4962088;28;20046;-79
2022/06/01 08:46:15;;;;;;;4.50;3.50;;;;;;;28.49;34.76;100387.38;4986007;28;20055;-79
2022/06/01 08:48:49;;;;;;;6.32;3.90;;;;;;;28.53;34.94;100385.38;4985165;28;20090;-78
2022/06/01 08:51:20;;;;;;;5.13;3.75;;;;;;;28.35;35.35;100369.44;4966902;28;20062;-78
2022/06/01 08:53:53;;;;;;;7.38;4.20;;;;;;;28.13;35.85;100372.56;4984496;28;20074;-79
2022/06/01 08:56:43;;;;;;;4.32;3.78;;;;;;;27.65;36.59;100357.63;4967713;28;20475;-79
2022/06/01 08:59:26;;;;;;;4.55;3.78;;;;;;;27.47;36.92;100373.84;4982196;28;20055;-78
2022/06/01 09:02:06;;;;;;;7.38;3.45;;;;;;;27.36;37.27;100366.44;4984427;28;20508;-79
2022/06/01 09:04:49;;;;;;;10.10;4.20;;;;;;;27.11;38.05;100374.16;4986120;28;20081;-79
2022/06/01 09:07:30;;;;;;;6.28;3.55;;;;;;;27.14;38.25;100380.19;4986395;28;20082;-78
2022/06/01 09:10:22;;;;;;;6.72;3.80;;;;;;;26.99;38.45;100373.00;4986226;28;20558;-78
2022/06/01 09:13:00;;;;;;;6.57;3.30;;;;;;;27.04;38.51;100357.56;4987440;28;20055;-79
2022/06/01 09:15:38;;;;;;;7.75;4.68;;;;;;;27.05;38.41;100370.00;4985009;28;20559;-80
2022/06/01 09:18:07;;;;;;;6.85;3.83;;;;;;;27.11;38.45;100398.28;4992806;28;20128;-81
2022/06/01 09:23:22;;;;;;;9.18;3.88;;;;;;;27.36;38.10;100392.38;4984994;28;20054;-79
2022/06/01 09:25:54;;;;;;;11.75;5.07;;;;;;;27.40;37.99;100393.06;4968625;28;20483;-81
2022/06/01 09:28:29;;;;;;;7.25;4.05;;;;;;;27.43;37.66;100396.44;4985225;28;20051;-79
2022/06/01 09:31:00;;;;;;;8.95;4.03;;;;;;;27.31;38.02;100394.47;4984178;28;20504;-79
2022/06/01 09:33:32;;;;;;;10.18;3.80;;;;;;;27.35;37.69;100385.28;4986280;28;20062;-81
2022/06/01 09:36:08;;;;;;;5.38;3.70;;;;;;;27.48;38.01;100397.03;4986112;28;20073;-80
2022/06/01 09:38:51;;;;;;;12.85;3.70;;;;;;;27.50;37.86;100400.50;4977421;28;20062;-79
2022/06/01 09:41:24;;;;;;;8.30;3.90;;;;;;;27.40;38.04;100395.75;4994322;28;20416;-79
2022/06/01 09:43:57;;;;;;;8.15;4.20;;;;;;;27.33;37.95;100387.19;4994514;28;20488;-79
2022/06/01 09:46:33;;;;;;;7.72;4.07;;;;;;;27.29;38.23;100401.75;4994641;28;20054;-79
2022/06/01 09:49:19;;;;;;;8.65;4.03;;;;;;;27.20;38.27;100404.94;4994596;28;20066;-79
2022/06/01 09:51:54;;;;;;;6.63;3.95;;;;;;;27.08;38.86;100404.69;4978479;28;20085;-79
2022/06/01 09:54:23;;;;;;;6.80;4.28;;;;;;;26.98;39.49;100424.91;4989451;28;20042;-79
2022/06/01 09:56:52;;;;;;;10.55;4.70;;;;;;;26.79;40.39;100427.75;4977208;28;20066;-81
2022/06/01 10:08:20;;;;;;;8.98;4.78;;;;;;;25.91;43.27;100428.81;4978468;28;20113;-79
2022/06/01 10:11:17;;;;;;;6.63;4.90;;;;;;;25.69;43.19;100423.69;4974768;28;20061;-79
2022/06/01 10:13:53;;;;;;;7.82;4.82;;;;;;;25.50;43.22;100399.66;4975509;28;20096;-78
2022/06/01 10:16:35;;;;;;;9.05;5.30;;;;;;;25.56;43.60;100423.44;4974895;28;20058;-80
2022/06/01 10:19:10;;;;;;;6.90;4.47;;;;;;;25.45;43.59;100433.81;4974993;28;20480;-81
2022/06/01 10:22:00;;;;;;;11.25;4.53;;;;;;;25.11;42.03;100412.19;4974782;28;20061;-85
2022/06/01 10:24:49;;;;;;;9.40;4.47;;;;;;;24.96;42.34;100428.97;4983010;28;20481;-79
2022/06/01 10:27:20;;;;;;;9.40;4.32;;;;;;;24.99;42.10;100444.84;4975693;28;20220;-78
2022/06/01 10:29:58;;;;;;;7.50;4.03;;;;;;;24.88;42.21;100436.47;4975589;28;20059;-80
2022/06/01 10:32:43;;;;;;;17.77;9.23;;;;;;;24.91;42.96;100442.56;4974583;28;20062;-79
2022/06/01 10:35:27;;;;;;;7.13;4.72;;;;;;;24.93;43.71;100443.34;4974412;28;20055;-79
2022/06/01 10:38:03;;;;;;;9.35;5.10;;;;;;;24.95;44.05;100443.25;4974582;28;20062;-79
2022/06/01 10:40:42;;;;;;;7.22;5.75;;;;;;;24.99;44.22;100449.34;4974274;28;20047;-80
2022/06/01 10:43:32;;;;;;;9.53;5.13;;;;;;;25.01;43.27;100451.00;4977870;28;20050;-80
2022/06/01 10:46:22;;;;;;;6.57;4.82;;;;;;;24.87;43.66;100440.97;4984543;28;20353;-78
2022/06/01 10:49:18;;;;;;;9.55;6.13;;;;;;;24.62;44.85;100422.53;4989651;28;20089;-80
2022/06/01 10:51:54;;;;;;;14.45;7.25;;;;;;;24.77;45.37;100458.34;4993810;28;20065;-81
2022/06/01 10:54:28;;;;;;;14.60;7.10;;;;;;;24.74;45.89;100453.16;4988480;28;20053;-79
2022/06/01 10:56:56;;;;;;;9.02;6.90;;;;;;;24.66;46.24;100452.66;4958307;28;20061;-79
2022/06/01 10:59:25;;;;;;;13.15;7.78;;;;;;;24.60;46.31;100450.25;4974941;28;20054;-80
2022/06/01 11:02:07;;;;;;;13.48;7.60;;;;;;;24.56;46.52;100464.69;4989494;28;20062;-79
2022/06/01 11:04:50;;;;;;;17.05;7.82;;;;;;;24.31;47.12;100449.72;4973227;28;20082;-80
2022/06/01 11:07:44;;;;;;;11.48;8.05;;;;;;;24.10;47.69;100447.06;4985092;28;20061;-81
2022/06/01 11:10:43;;;;;;;15.05;7.68;;;;;;;23.99;47.80;100460.00;4975356;28;20050;-80
2022/06/01 11:13:45;;;;;;;12.25;7.57;;;;;;;24.00;48.20;100460.88;4975496;28;20086;-80
2022/06/01 11:16:30;;;;;;;15.33;8.53;;;;;;;24.02;48.20;100457.19;4973574;28;20141;-81
2022/06/01 11:19:07;;;;;;;11.00;7.95;;;;;;;23.83;48.77;100446.47;4973254;28;20059;-81
2022/06/01 11:21:49;;;;;;;16.73;8.05;;;;;;;23.99;49.06;100469.81;4956602;28;20132;-81
2022/06/01 11:24:27;;;;;;;17.33;8.80;;;;;;;24.07;49.19;100465.00;4956482;28;20058;-79
2022/06/01 11:27:22;;;;;;;14.15;7.97;;;;;;;23.88;49.17;100427.59;4952432;29;20081;-81
2022/06/01 11:30:03;;;;;;;11.95;7.47;;;;;;;24.00;49.31;100458.19;4954365;29;20098;-80
2022/06/01 11:32:43;;;;;;;13.75;7.20;;;;;;;24.12;49.79;100460.34;4954301;29;20055;-79
2022/06/01 11:35:30;;;;;;;14.75;7.45;;;;;;;24.19;49.43;100451.13;4954610;29;20055;-80
2022/06/01 11:38:26;;;;;;;10.40;7.03;;;;;;;24.12;49.85;100450.53;4954277;28;20109;-80
2022/06/01 11:41:00;;;;;;;12.63;6.55;;;;;;;24.18;50.39;100457.41;4948797;29;20481;-81
2022/06/01 11:43:58;;;;;;;12.88;6.43;;;;;;;24.29;49.67;100447.13;4954585;28;20047;-80
2022/06/01 11:46:35;;;;;;;11.05;6.18;;;;;;;24.39;49.53;100465.41;4937422;28;20482;-81
2022/06/01 11:49:11;;;;;;;12.85;6.20;;;;;;;24.35;49.83;100474.47;4954830;28;20110;-82
2022/06/01 11:51:40;;;;;;;9.20;5.80;;;;;;;24.29;49.25;100468.47;4952906;29;20601;-81
2022/06/01 11:54:34;;;;;;;6.68;5.47;;;;;;;24.20;49.68;100455.53;4956043;29;20055;-81
2022/06/01 11:57:21;;;;;;;11.30;6.30;;;;;;;24.11;50.50;100472.81;4954213;29;20055;-81
2022/06/01 12:00:03;;;;;;;11.90;6.00;;;;;;;23.93;50.68;100473.59;4954683;28;20059;-81
2022/06/01 12:02:41;;;;;;;10.60;6.15;;;;;;;23.82;51.76;100476.72;4953081;29;20761;-81
2022/06/01 12:05:20;;;;;;;9.70;5.55;;;;;;;23.61;52.02;100466.91;4953862;29;20051;-80
2022/06/01 12:07:58;;;;;;;8.88;4.65;;;;;;;23.38;50.72;100443.84;4954409;29;20150;-82
2022/06/01 12:10:30;;;;;;;7.97;4.78;;;;;;;23.43;50.21;100474.72;4954177;29;20154;-80
2022/06/01 12:13:00;;;;;;;6.82;4.40;;;;;;;23.43;50.08;100464.06;4953548;29;20061;-80
2022/06/01 12:15:53;;;;;;;8.55;4.55;;;;;;;23.39;49.38;100477.59;4954017;28;20486;-81
2022/06/01 12:18:29;;;;;;;10.95;5.00;;;;;;;23.28;50.30;100470.88;4936185;28;20051;-79
2022/06/01 12:21:19;;;;;;;7.63;4.40;;;;;;;23.27;50.36;100462.94;4955058;29;20055;-83
2022/06/01 12:29:59;;;;;;;6.53;4.10;;;;;;;23.41;49.41;100447.25;4975528;28;20082;-81